Everett, Washington
Current Conditions -  °F | °C
As of 1:53 AM on Tuesday 21 Oct 2014 (Local Time) from KPAE Reporting Station
Broken Clouds Broken Clouds  
Wind Chill: 53°   Ceiling: 3700
Heat Index: 53°   Visibility: 10mi
Dew Point: 50°   Wind: 10mph
Humidity: 89%   Direction: 160°SSE
Pressure: 29.82"   Gusts: NA
Location:  47.98°N, 122.2°W
Report Text: KPAE 210853Z AUTO 16009KT 10SM BKN037 BKN065 12/10 A2982 RMK AO2 SLP097 60003 T01170100 53008
Loading
Personal Weather Stations






























Interactive Weather Map
Tropical Storm Tracking
New forecast layout! Learn more

10-Day Weather Forecast

Advertisements
Track Severe Weather on mobile